Historyczne dane pomiarowe

Dodano dane terminowe – wersja testowa.

Dane z okresu 1951-2019

Wersja bazy: 1.34 [2019-03-16, lista zmian], aktualizacja planowana na 2019-04-15

Dane meteo z obszaru Polski uzyskane na podstawie danych udostępnionych przez Instytut Meteorologii i Gospodarki Wodnej – Państwowy Instytut Badawczy.

 

Wybierz Datę:    

       

TemperaturaWilgotnośćWiatrCiśnienieOpadyŚniegCzas trwania zjawisk
 Stacja t tx tn tng RH VA  wxwx mslp ppp RRR   cm mm wxwxwxwxwxwxwx
1994-08-14 13.8 17.4 11.5--- 4.3 4.3---- 0.0------------
1994-08-13 16.7 21.8 14.6--- 6.3 5.7---- 5.2------------
1994-08-12 16.5 20.8 15.0--- 7.3 2.7---- 3.2------------
1994-08-11 15.9 20.4 11.1--- 7.7 2.0---- 6.4------------
1994-08-10 19.2 25.7 14.3--- 4.7 3.0---- 0.0------------
1994-08-09 18.0 22.6 15.3--- 8.0 2.7---- 4.9------------
1994-08-08 21.2 26.5 18.0--- 6.0 1.7---- 6.1------------
1994-08-07 23.1 29.7 17.1--- 4.3 2.3---- 14.4------------
1994-08-06 23.0 31.3 12.2--- 1.0 2.3---- 0.0------------
1994-08-05 22.9 30.2 13.9--- 2.7 2.3---- 0.0------------
1994-08-04 23.5 30.1 16.9--- 4.3 3.7---- 0.0------------
1994-08-03 23.2 29.5 15.8--- 4.3 2.7---- 0.0------------
1994-08-02 22.6 30.6 16.4--- 5.7 3.0---- 0.6------------
1994-08-01 25.5 33.7 15.0--- 3.3 2.3---- 1.9------------
1994-07-31 25.1 33.2 14.9--- 2.0 0.3---- 0.0------------
1994-07-30 25.5 33.9 13.7--- 3.0 1.7---- 0.0------------
1994-07-29 24.5 33.3 13.6--- 2.3 1.7---- 0.0------------
1994-07-28 23.2 32.5 11.8--- 1.0 1.3---- 0.0------------
1994-07-27 24.5 32.8 13.5--- 2.3 2.7---- 0.0------------
1994-07-26 23.1 32.2 12.1--- 3.0 1.0---- 0.0------------
1994-07-25 22.1 30.4 10.5--- 2.3 1.0---- 0.0------------
1994-07-24 21.8 28.9 10.2--- 1.7 1.3---- 0.0------------
1994-07-23 20.5 27.9 9.7--- 3.0 1.0---- 0.0------------
1994-07-22 19.2 26.7 9.7--- 1.7 3.0---- 0.0------------
1994-07-21 18.7 26.2 7.5--- 1.7 1.3---- 0.0------------
1994-07-20 16.3 23.4 7.6--- 2.3 2.7---- 0.0------------
1994-07-19 17.6 23.3 13.5--- 5.3 3.7---- 0.0------------
1994-07-18 21.2 24.8 17.9--- 5.3 1.3---- 6.3------------
1994-07-17 21.9 26.7 16.4--- 6.3 1.3---- 0.9------------
1994-07-16 22.2 29.2 10.6--- 3.7 2.0---- 0.0------------
1994-07-15 21.4 26.9 12.4--- 3.7 2.0---- 0.0------------
1994-07-14 21.3 28.3 12.5--- 5.0 2.7---- 0.0------------
1994-07-13 21.1 27.7 11.0--- 2.7 3.0---- 0.0------------
1994-07-12 19.6 26.2 13.1--- 3.3 3.3---- 0.0------------
1994-07-11 18.4 23.8 13.6--- 5.0 3.3---- 0.0------------
1994-07-10 16.0 23.3 12.1--- 5.7 3.7---- 13.2------------
1994-07-09 14.4 16.5 12.7--- 6.7 4.0---- 4.5------------
1994-07-08 15.1 21.6 14.2--- 6.3 2.3---- 1.3------------
1994-07-07 19.5 25.8 10.7--- 3.7 2.7---- 0.6------------
1994-07-06 18.1 24.6 7.8--- 3.7 1.7---- 0.0------------
1994-07-05 18.8 25.7 9.3--- 4.7 3.3---- 0.0------------
1994-07-04 18.7 26.3 7.7--- 2.0 2.0---- 0.0------------
1994-07-03 17.4 24.8 6.5--- 1.7 2.7---- 0.0------------
1994-07-02 17.0 22.8 8.4--- 0.3 1.7---- 0.0------------
1994-07-01 16.8 22.3 10.6--- 2.7 2.7---- 0.0------------
1994-06-30 20.6 25.0 14.4--- 5.3 2.0---- 1.9------------
1994-06-29 22.8 29.2 13.1--- 1.3 0.7---- 0.0------------
1994-06-28 22.5 28.4 15.4--- 1.7 1.0---- 0.0------------
1994-06-27 24.9 31.2 19.0--- 2.0 1.0---- 0.0------------
1994-06-26 20.8 27.6 7.6--- 0.0 0.7---- 0.0------------
1994-06-25 14.3 21.5 3.8--- 2.7 1.0---- 0.0------------
1994-06-24 13.2 18.5 6.4--- 1.7 5.3---- 0.0------------
1994-06-23 16.9 21.6 15.6--- 2.3 5.7---- 0.0------------
1994-06-22 17.5 25.1 6.9--- 4.7 4.3---- 0.0------------
1994-06-21 14.4 20.4 5.8--- 2.3 1.3---- 0.0------------
1994-06-20 15.8 20.5 12.0--- 6.3 4.3---- 0.0------------
1994-06-19 15.9 20.6 11.0--- 5.3 4.0---- 0.0------------
1994-06-18 11.7 17.8 3.5--- 5.0 2.7---- 3.9------------
1994-06-17 10.1 13.7 8.4--- 6.0 4.0---- 0.5------------
1994-06-16 10.7 15.4 5.1--- 6.3 5.0---- 1.7------------
230.1 ms

 

Źródłem pochodzenia danych jest Instytut Meteorologii i Gospodarki Wodnej – Państwowy Instytut Badawczy. Dane Instytutu Meteorologii i Gospodarki Wodnej – Państwowego Instytutu Badawczego zostały przetworzone.

Dane źródłowe można odnaleźć na stronie https://dane.imgw.pl